Aérodrome :
LOGIN :

S'inscrire | Disclaimer

   EN    FR    IT 

 










Légende :    VFR   VFR Marginal   IFR   IFR Intensif   IFR Très Intensif
Visi : 
Plafond : 
>= 8 km
>= 3000ft
5 à 8 km
1000 à 3000 ft
1500m à 5 km
500 à 1000 ft
800 à 1500m
200 à 500 ft
< 800m
< 200 ft
Symboles :   Orages  Brouillard  Fortes neiges  Fortes précipitations  Vent > 20 kt
SIGMETs :   Divers  Orages  Givrage  Turbulence  Onde Orograph.  Cendres Volcan.






- Altitude de l'aérodrome : 6 ft
- Code IATA : PSA


LIRP - Galileo Galilei Pisa

DERNIER METAR :
  • 141215Z 11007KT 9999 SCT020 BKN030 09/03 Q1005 NOSIG

METARs EXPIRÉS :
  • 141145Z 12007KT 9999 FEW020 BKN030 09/04 Q1004 NOSIG
  • 141115Z 13007KT 9999 FEW025 BKN030 09/03 Q1004 NOSIG
  • 141045Z 13006KT 9999 FEW025 BKN030 08/04 Q1004 NOSIG
  • 141015Z 13005KT 110V170 9999 FEW025 BKN030 08/04 Q1004 NOSIG
  • 140945Z 12008KT 9999 FEW025 BKN030 07/03 Q1003 NOSIG

TAF TAF LIRP
Valide du 14 à 12h jusqu'au 15 à 12h UTC


141100Z 1412/1512 13005KT 9999 FEW020 BKN030
TEMPO 1418/1506 5000 BR
PROB30
TEMPO 1500/1505 1500 MIFG SCT005 BKN010



MET'MAP, la Météo Aéronautique d'un coup d'oeil ! - Copyright ORBIFLY Décembre 2007 - Disclaimer

ORBIFLY MET'MAP TEAM :

Programmation & Développement : Alexandra Zaïnal
Sur une idée originale de : Baudouin d'Aumeries
Assistance à la programmation : Marc-Olivier Méhu
Soutien technique & logistique : Manuel Goepfert

Contact : metmap@orbifly.com




SOURCES & CREDITS :

   NOAA